臺北終端管制區 - 松西席

METAR RCSS 211400Z 10008KT 9999 -DZ FEW010 BKN018 BKN030 23/20 Q1018 NOSIG RMK A3006(A)=

站台狀態:Online
最後更新:2018-11-21 22:00:02